Brilliance Of The Seas — C6SJ5 — position and weather

sailwx.info

Track history (hours):
 
Tides and Currents Weather Stations Pressure Air Temp Water Temp Dewpoint Dewpoint Depression Visibility Wind Speed Wind Dir Waves Ship Positions

Brilliance Of The Seas

Operator: Royal Caribbean Cruises Ltd

Last reported at 2015-Mar-26 21:31 UTC. Time now 2015-Mar-26 22:33 UTC.
Position N 20°29' W 086°59'.

Type: Ship. MMSI: 311361000.

Date/timePositionNaut miles runAvg speedWind from/ knotsBaromVisibWave heightAir tempDewpointWater temp
2015-Mar-26 21:31N 20°29' W 086°59'0 0.0
2015-Mar-26 20:31N 20°29' W 086°59'0 0.0
2015-Mar-26 19:31N 20°29' W 086°59'0 0.0
2015-Mar-26 18:31N 20°29' W 086°59'0 0.0
2015-Mar-26 17:25N 20°29' W 086°59'0 0.0
2015-Mar-26 16:28N 20°29' W 086°59'0 0.0
2015-Mar-26 15:28N 20°29' W 086°59'1 1.0
2015-Mar-26 14:33N 20°30' W 086°59'  
2015-Mar-23 21:33N 27°46' W 082°31'10 9.9
2015-Mar-23 20:33N 27°55' W 082°27'1 1.4
2015-Mar-23 19:31N 27°57' W 082°27'0 0.0
2015-Mar-23 18:31N 27°57' W 082°27'0 0.0
2015-Mar-23 17:31N 27°57' W 082°27'0 0.0
2015-Mar-23 16:31N 27°57' W 082°27'0 0.0
2015-Mar-23 15:31N 27°57' W 082°27'0 0.0
2015-Mar-23 14:31N 27°57' W 082°27'0 0.0
2015-Mar-23 13:31N 27°57' W 082°27'0 0.0
2015-Mar-23 12:31N 27°57' W 082°27'0 0.0
2015-Mar-23 11:31N 27°57' W 082°27'0 0.0
2015-Mar-23 10:33N 27°57' W 082°27'4 4.0
2015-Mar-23 09:33N 27°53' W 082°26'1412.7
2015-Mar-23 08:26N 27°41' W 082°35'49314.5
2015-Mar-21 22:32N 20°31' W 086°59'2 2.0
2015-Mar-21 21:26N 20°29' W 086°59'0 0.0
2015-Mar-21 20:14N 20°29' W 086°59'0 0.0
2015-Mar-21 19:20N 20°29' W 086°59'0 0.0
2015-Mar-21 18:29N 20°29' W 086°59'0 0.0
2015-Mar-21 17:29N 20°29' W 086°59'0 0.0
2015-Mar-21 16:29N 20°29' W 086°59'0 0.0
2015-Mar-21 15:29N 20°29' W 086°59'0 0.0
2015-Mar-21 14:23N 20°29' W 086°59'0 0.0
2015-Mar-21 13:29N 20°29' W 086°59'0 0.0
2015-Mar-21 12:29N 20°29' W 086°59'0 0.1
2015-Mar-21 11:33N 20°29' W 086°59'43913.2
2015-Mar-20 02:18N 27°02' W 083°25'1114.5
2015-Mar-20 01:33N 27°11' W 083°20'1614.4
2015-Mar-20 00:25N 27°26' W 083°12'4013.2
2015-Mar-19 21:24N 27°45' W 082°32'1011.7
2015-Mar-19 20:33N 27°53' W 082°26'3 3.2
2015-Mar-19 19:30N 27°57' W 082°27'0 0.0
2015-Mar-19 18:33N 27°57' W 082°27'0 0.0
2015-Mar-19 17:33N 27°57' W 082°27'0 0.0
2015-Mar-19 16:33N 27°57' W 082°27'0 0.0
2015-Mar-19 15:33N 27°57' W 082°27'0 0.0
2015-Mar-19 14:33N 27°57' W 082°27'0 0.0
2015-Mar-19 13:33N 27°57' W 082°27'0 0.0
2015-Mar-19 12:33N 27°57' W 082°27'0 0.0
2015-Mar-19 11:33N 27°57' W 082°27'0 0.2
2015-Mar-19 10:34N 27°56' W 082°27'6 6.5
2015-Mar-19 09:33N 27°50' W 082°27'1212.3
2015-Mar-19 08:33N 27°40' W 082°36'3012.8
2015-Mar-19 06:15N 27°33' W 083°08'812.0
2015-Mar-19 05:33N 27°25' W 083°12'1613.4
2015-Mar-19 04:22N 27°11' W 083°20'44615.0
2015-Mar-17 22:33N 20°32' W 086°59'3 2.8
2015-Mar-17 21:29N 20°29' W 086°59'0 0.0
2015-Mar-17 20:29N 20°29' W 086°59'0 0.0
2015-Mar-17 19:29N 20°29' W 086°59'0 0.0
2015-Mar-17 18:29N 20°29' W 086°59'0 0.0
2015-Mar-17 17:32N 20°29' W 086°59'0 0.0
2015-Mar-17 16:32N 20°29' W 086°59'0 0.0
2015-Mar-17 15:32N 20°29' W 086°59'0 0.0
2015-Mar-17 14:32N 20°29' W 086°59'0 0.0
2015-Mar-17 13:32N 20°29' W 086°59'0 0.0
2015-Mar-17 12:32N 20°29' W 086°59'1 0.6
2015-Mar-17 11:33N 20°30' W 086°59'  
Track history (hours):
 
Tides and Currents Weather Stations Pressure Air Temp Water Temp Dewpoint Dewpoint Depression Visibility Wind Speed Wind Dir Waves Ship Positions

Brilliance Of The Seas

Operator: Royal Caribbean Cruises Ltd

Last reported at 2015-Mar-26 21:31 UTC. Time now 2015-Mar-26 22:33 UTC.
Position N 20°29' W 086°59'.

Type: Ship. MMSI: 311361000.

Date/timePositionNaut miles runAvg speedWind from/ knotsBaromVisibWave heightAir tempDewpointWater temp
2015-Mar-26 21:31N 20°29' W 086°59'0 0.0
2015-Mar-26 20:31N 20°29' W 086°59'0 0.0
2015-Mar-26 19:31N 20°29' W 086°59'0 0.0
2015-Mar-26 18:31N 20°29' W 086°59'0 0.0
2015-Mar-26 17:25N 20°29' W 086°59'0 0.0
2015-Mar-26 16:28N 20°29' W 086°59'0 0.0
2015-Mar-26 15:28N 20°29' W 086°59'1 1.0
2015-Mar-26 14:33N 20°30' W 086°59'  
2015-Mar-23 21:33N 27°46' W 082°31'10 9.9
2015-Mar-23 20:33N 27°55' W 082°27'1 1.4
2015-Mar-23 19:31N 27°57' W 082°27'0 0.0
2015-Mar-23 18:31N 27°57' W 082°27'0 0.0
2015-Mar-23 17:31N 27°57' W 082°27'0 0.0
2015-Mar-23 16:31N 27°57' W 082°27'0 0.0
2015-Mar-23 15:31N 27°57' W 082°27'0 0.0
2015-Mar-23 14:31N 27°57' W 082°27'0 0.0
2015-Mar-23 13:31N 27°57' W 082°27'0 0.0
2015-Mar-23 12:31N 27°57' W 082°27'0 0.0
2015-Mar-23 11:31N 27°57' W 082°27'0 0.0
2015-Mar-23 10:33N 27°57' W 082°27'4 4.0
2015-Mar-23 09:33N 27°53' W 082°26'1412.7
2015-Mar-23 08:26N 27°41' W 082°35'49314.5
2015-Mar-21 22:32N 20°31' W 086°59'2 2.0
2015-Mar-21 21:26N 20°29' W 086°59'0 0.0
2015-Mar-21 20:14N 20°29' W 086°59'0 0.0
2015-Mar-21 19:20N 20°29' W 086°59'0 0.0
2015-Mar-21 18:29N 20°29' W 086°59'0 0.0
2015-Mar-21 17:29N 20°29' W 086°59'0 0.0
2015-Mar-21 16:29N 20°29' W 086°59'0 0.0
2015-Mar-21 15:29N 20°29' W 086°59'0 0.0
2015-Mar-21 14:23N 20°29' W 086°59'0 0.0
2015-Mar-21 13:29N 20°29' W 086°59'0 0.0
2015-Mar-21 12:29N 20°29' W 086°59'0 0.1
2015-Mar-21 11:33N 20°29' W 086°59'43913.2
2015-Mar-20 02:18N 27°02' W 083°25'1114.5
2015-Mar-20 01:33N 27°11' W 083°20'1614.4
2015-Mar-20 00:25N 27°26' W 083°12'4013.2
2015-Mar-19 21:24N 27°45' W 082°32'1011.7
2015-Mar-19 20:33N 27°53' W 082°26'3 3.2
2015-Mar-19 19:30N 27°57' W 082°27'0 0.0
2015-Mar-19 18:33N 27°57' W 082°27'0 0.0
2015-Mar-19 17:33N 27°57' W 082°27'0 0.0
2015-Mar-19 16:33N 27°57' W 082°27'0 0.0
2015-Mar-19 15:33N 27°57' W 082°27'0 0.0
2015-Mar-19 14:33N 27°57' W 082°27'0 0.0
2015-Mar-19 13:33N 27°57' W 082°27'0 0.0
2015-Mar-19 12:33N 27°57' W 082°27'0 0.0
2015-Mar-19 11:33N 27°57' W 082°27'0 0.2
2015-Mar-19 10:34N 27°56' W 082°27'6 6.5
2015-Mar-19 09:33N 27°50' W 082°27'1212.3
2015-Mar-19 08:33N 27°40' W 082°36'3012.8
2015-Mar-19 06:15N 27°33' W 083°08'812.0
2015-Mar-19 05:33N 27°25' W 083°12'1613.4
2015-Mar-19 04:22N 27°11' W 083°20'44615.0
2015-Mar-17 22:33N 20°32' W 086°59'3 2.8
2015-Mar-17 21:29N 20°29' W 086°59'0 0.0
2015-Mar-17 20:29N 20°29' W 086°59'0 0.0
2015-Mar-17 19:29N 20°29' W 086°59'0 0.0
2015-Mar-17 18:29N 20°29' W 086°59'0 0.0
2015-Mar-17 17:32N 20°29' W 086°59'0 0.0
2015-Mar-17 16:32N 20°29' W 086°59'0 0.0
2015-Mar-17 15:32N 20°29' W 086°59'0 0.0
2015-Mar-17 14:32N 20°29' W 086°59'0 0.0
2015-Mar-17 13:32N 20°29' W 086°59'0 0.0
2015-Mar-17 12:32N 20°29' W 086°59'1 0.6
2015-Mar-17 11:33N 20°30' W 086°59'  

Dump ship's entire track history